sensor_id;sensor_type;location;lat;lon;timestamp;pressure;altitude;pressure_sealevel;temperature;humidity
42811;BME280;28457;55.680;37.656;2022-09-09T00:00:15;100677.41;;;10.62;53.24
42811;BME280;28457;55.680;37.656;2022-09-09T00:02:49;100686.16;;;10.64;53.80
42811;BME280;28457;55.680;37.656;2022-09-09T00:05:28;100699.28;;;10.67;53.70
42811;BME280;28457;55.680;37.656;2022-09-09T00:07:59;100692.22;;;10.66;54.29
42811;BME280;28457;55.680;37.656;2022-09-09T00:10:33;100699.28;;;10.67;53.54
42811;BME280;28457;55.680;37.656;2022-09-09T00:13:11;100693.72;;;10.69;53.38
42811;BME280;28457;55.680;37.656;2022-09-09T00:15:52;100698.09;;;10.70;53.49
42811;BME280;28457;55.680;37.656;2022-09-09T00:18:27;100691.03;;;10.69;53.34
42811;BME280;28457;55.680;37.656;2022-09-09T00:21:04;100694.06;;;10.66;53.97
42811;BME280;28457;55.680;37.656;2022-09-09T00:23:37;100694.59;;;10.61;53.51
42811;BME280;28457;55.680;37.656;2022-09-09T00:26:12;100692.72;;;10.62;53.29
42811;BME280;28457;55.680;37.656;2022-09-09T00:28:48;100691.22;;;10.59;53.86
42811;BME280;28457;55.680;37.656;2022-09-09T00:31:23;100700.31;;;10.58;53.85
42811;BME280;28457;55.680;37.656;2022-09-09T00:33:54;100701.00;;;10.60;54.00
42811;BME280;28457;55.680;37.656;2022-09-09T00:36:27;100700.81;;;10.62;54.34
42811;BME280;28457;55.680;37.656;2022-09-09T00:38:58;100702.00;;;10.59;53.46
42811;BME280;28457;55.680;37.656;2022-09-09T00:41:35;100699.28;;;10.59;54.07
42811;BME280;28457;55.680;37.656;2022-09-09T00:44:19;100709.75;;;10.54;53.69
42811;BME280;28457;55.680;37.656;2022-09-09T00:46:59;100706.72;;;10.57;54.01
42811;BME280;28457;55.680;37.656;2022-09-09T00:49:40;100708.56;;;10.57;53.92
42811;BME280;28457;55.680;37.656;2022-09-09T00:52:22;100706.53;;;10.59;53.46
42811;BME280;28457;55.680;37.656;2022-09-09T00:55:03;100711.44;;;10.55;54.22
42811;BME280;28457;55.680;37.656;2022-09-09T00:57:34;100712.94;;;10.58;53.81
42811;BME280;28457;55.680;37.656;2022-09-09T01:00:21;100710.91;;;10.60;53.40
42811;BME280;28457;55.680;37.656;2022-09-09T01:03:06;100709.91;;;10.61;53.72
42811;BME280;28457;55.680;37.656;2022-09-09T01:05:45;100708.06;;;10.61;53.47
42811;BME280;28457;55.680;37.656;2022-09-09T01:08:28;100713.78;;;10.58;53.89
42811;BME280;28457;55.680;37.656;2022-09-09T01:11:01;100720.84;;;10.59;53.73
42811;BME280;28457;55.680;37.656;2022-09-09T01:13:32;100715.47;;;10.59;53.79
42811;BME280;28457;55.680;37.656;2022-09-09T01:16:09;100720.84;;;10.59;53.89
42811;BME280;28457;55.680;37.656;2022-09-09T01:18:44;100712.75;;;10.59;53.97
42811;BME280;28457;55.680;37.656;2022-09-09T01:21:22;100718.97;;;10.60;54.12
42811;BME280;28457;55.680;37.656;2022-09-09T01:24:08;100728.94;;;10.59;53.33
42811;BME280;28457;55.680;37.656;2022-09-09T01:27:01;100736.34;;;10.57;53.87
42811;BME280;28457;55.680;37.656;2022-09-09T01:29:31;100731.81;;;10.58;53.68
42811;BME280;28457;55.680;37.656;2022-09-09T01:32:02;100736.34;;;10.57;54.51
42811;BME280;28457;55.680;37.656;2022-09-09T01:34:35;100740.03;;;10.56;54.05
42811;BME280;28457;55.680;37.656;2022-09-09T01:37:07;100738.22;;;10.57;54.26
42811;BME280;28457;55.680;37.656;2022-09-09T01:39:40;100741.06;;;10.55;54.26
42811;BME280;28457;55.680;37.656;2022-09-09T01:42:16;100740.41;;;10.53;54.22
42811;BME280;28457;55.680;37.656;2022-09-09T01:44:45;100743.25;;;10.51;54.63
42811;BME280;28457;55.680;37.656;2022-09-09T01:47:14;100745.94;;;10.51;54.50
42811;BME280;28457;55.680;37.656;2022-09-09T01:50:05;100748.97;;;10.48;54.22
42811;BME280;28457;55.680;37.656;2022-09-09T01:52:36;100748.97;;;10.48;54.75
42811;BME280;28457;55.680;37.656;2022-09-09T01:55:09;100754.53;;;10.47;54.87
42811;BME280;28457;55.680;37.656;2022-09-09T01:57:48;100755.38;;;10.47;54.85
42811;BME280;28457;55.680;37.656;2022-09-09T02:00:18;100760.94;;;10.46;54.53
42811;BME280;28457;55.680;37.656;2022-09-09T02:02:59;100762.63;;;10.47;55.20
42811;BME280;28457;55.680;37.656;2022-09-09T02:05:55;100772.69;;;10.45;54.46
42811;BME280;28457;55.680;37.656;2022-09-09T02:08:37;100772.19;;;10.41;55.21
42811;BME280;28457;55.680;37.656;2022-09-09T02:11:13;100776.56;;;10.42;55.20
42811;BME280;28457;55.680;37.656;2022-09-09T02:13:49;100765.13;;;10.40;55.22
42811;BME280;28457;55.680;37.656;2022-09-09T02:16:24;100771.19;;;10.42;54.49
42811;BME280;28457;55.680;37.656;2022-09-09T02:18:57;100770.53;;;10.40;54.96
42811;BME280;28457;55.680;37.656;2022-09-09T02:21:44;100770.53;;;10.40;55.05
42811;BME280;28457;55.680;37.656;2022-09-09T02:24:15;100770.66;;;10.39;55.21
42811;BME280;28457;55.680;37.656;2022-09-09T02:26:52;100775.22;;;10.38;55.31
42811;BME280;28457;55.680;37.656;2022-09-09T02:29:26;100773.38;;;10.39;55.38
42811;BME280;28457;55.680;37.656;2022-09-09T02:32:01;100781.44;;;10.39;54.67
42811;BME280;28457;55.680;37.656;2022-09-09T02:34:39;100782.31;;;10.39;55.46
42811;BME280;28457;55.680;37.656;2022-09-09T02:37:09;100784.31;;;10.37;55.36
42811;BME280;28457;55.680;37.656;2022-09-09T02:39:43;100791.56;;;10.37;54.81
42811;BME280;28457;55.680;37.656;2022-09-09T02:42:15;100784.66;;;10.34;54.25
42811;BME280;28457;55.680;37.656;2022-09-09T02:44:45;100792.91;;;10.33;54.67
42811;BME280;28457;55.680;37.656;2022-09-09T02:47:27;100790.22;;;10.33;54.84
42811;BME280;28457;55.680;37.656;2022-09-09T02:50:11;100797.59;;;10.30;55.30
42811;BME280;28457;55.680;37.656;2022-09-09T02:52:47;100798.63;;;10.29;55.39
42811;BME280;28457;55.680;37.656;2022-09-09T02:55:24;100804.16;;;10.28;54.55
42811;BME280;28457;55.680;37.656;2022-09-09T02:57:58;100803.31;;;10.27;55.36
42811;BME280;28457;55.680;37.656;2022-09-09T03:00:30;100813.53;;;10.24;55.04
42811;BME280;28457;55.680;37.656;2022-09-09T03:03:02;100818.41;;;10.20;54.99
42811;BME280;28457;55.680;37.656;2022-09-09T03:05:32;100811.03;;;10.22;54.97
42811;BME280;28457;55.680;37.656;2022-09-09T03:08:01;100812.72;;;10.23;54.93
42811;BME280;28457;55.680;37.656;2022-09-09T03:10:30;100817.25;;;10.23;55.36
42811;BME280;28457;55.680;37.656;2022-09-09T03:12:59;100813.72;;;10.22;55.22
42811;BME280;28457;55.680;37.656;2022-09-09T03:15:36;100812.06;;;10.21;55.31
42811;BME280;28457;55.680;37.656;2022-09-09T03:18:07;100818.41;;;10.20;55.19
42811;BME280;28457;55.680;37.656;2022-09-09T03:20:36;100817.44;;;10.21;55.29
42811;BME280;28457;55.680;37.656;2022-09-09T03:23:04;100815.72;;;10.20;55.03
42811;BME280;28457;55.680;37.656;2022-09-09T03:25:33;100820.28;;;10.20;55.15
42811;BME280;28457;55.680;37.656;2022-09-09T03:28:02;100825.84;;;10.18;55.59
42811;BME280;28457;55.680;37.656;2022-09-09T03:30:31;100826.69;;;10.19;55.99
42811;BME280;28457;55.680;37.656;2022-09-09T03:33:01;100828.53;;;10.18;55.85
42811;BME280;28457;55.680;37.656;2022-09-09T03:35:32;100839.44;;;10.17;55.58
42811;BME280;28457;55.680;37.656;2022-09-09T03:38:02;100834.25;;;10.15;56.05
42811;BME280;28457;55.680;37.656;2022-09-09T03:40:33;100837.94;;;10.14;56.23
42811;BME280;28457;55.680;37.656;2022-09-09T03:43:02;100839.13;;;10.12;56.00
42811;BME280;28457;55.680;37.656;2022-09-09T03:45:30;100842.66;;;10.12;56.44
42811;BME280;28457;55.680;37.656;2022-09-09T03:48:01;100849.03;;;10.11;55.85
42811;BME280;28457;55.680;37.656;2022-09-09T03:50:31;100850.91;;;10.11;56.26
42811;BME280;28457;55.680;37.656;2022-09-09T03:53:00;100848.22;;;10.11;56.38
42811;BME280;28457;55.680;37.656;2022-09-09T03:55:28;100852.72;;;10.10;56.44
42811;BME280;28457;55.680;37.656;2022-09-09T03:57:57;100859.28;;;10.07;56.16
42811;BME280;28457;55.680;37.656;2022-09-09T04:00:28;100859.28;;;10.07;55.99
42811;BME280;28457;55.680;37.656;2022-09-09T04:02:57;100858.47;;;10.07;56.34
42811;BME280;28457;55.680;37.656;2022-09-09T04:05:27;100852.38;;;10.05;56.76
42811;BME280;28457;55.680;37.656;2022-09-09T04:07:55;100856.94;;;10.04;56.05
42811;BME280;28457;55.680;37.656;2022-09-09T04:10:24;100853.53;;;10.02;56.06
42811;BME280;28457;55.680;37.656;2022-09-09T04:12:54;100858.09;;;10.02;56.79
42811;BME280;28457;55.680;37.656;2022-09-09T04:15:23;100858.09;;;10.02;56.21
42811;BME280;28457;55.680;37.656;2022-09-09T04:17:51;100862.81;;;10.00;56.74
42811;BME280;28457;55.680;37.656;2022-09-09T04:20:20;100861.78;;;10.01;57.11
42811;BME280;28457;55.680;37.656;2022-09-09T04:22:50;100862.94;;;9.98;57.01
42811;BME280;28457;55.680;37.656;2022-09-09T04:25:20;100872.88;;;9.98;56.83
42811;BME280;28457;55.680;37.656;2022-09-09T04:27:53;100862.94;;;9.98;56.56
42811;BME280;28457;55.680;37.656;2022-09-09T04:30:21;100865.66;;;9.98;57.40
42811;BME280;28457;55.680;37.656;2022-09-09T04:32:50;100861.09;;;9.99;57.12
42811;BME280;28457;55.680;37.656;2022-09-09T04:35:19;100863.97;;;9.97;57.16
42811;BME280;28457;55.680;37.656;2022-09-09T04:37:48;100866.47;;;9.99;56.54
42811;BME280;28457;55.680;37.656;2022-09-09T04:40:18;100866.34;;;10.00;57.21
42811;BME280;28457;55.680;37.656;2022-09-09T04:42:46;100869.69;;;10.02;56.52
42811;BME280;28457;55.680;37.656;2022-09-09T04:45:16;100873.22;;;10.03;56.58
42811;BME280;28457;55.680;37.656;2022-09-09T04:47:45;100873.75;;;10.06;56.52
42811;BME280;28457;55.680;37.656;2022-09-09T04:50:14;100877.97;;;10.09;57.24
42811;BME280;28457;55.680;37.656;2022-09-09T04:52:46;100876.81;;;10.12;56.70
42811;BME280;28457;55.680;37.656;2022-09-09T04:55:15;100875.63;;;10.14;56.62
42811;BME280;28457;55.680;37.656;2022-09-09T04:57:46;100877.84;;;10.19;56.87
42811;BME280;28457;55.680;37.656;2022-09-09T05:00:15;100877.34;;;10.23;56.54
42811;BME280;28457;55.680;37.656;2022-09-09T05:02:44;100878.56;;;10.29;56.87
42811;BME280;28457;55.680;37.656;2022-09-09T05:05:13;100873.84;;;10.31;56.35
42811;BME280;28457;55.680;37.656;2022-09-09T05:07:42;100886.66;;;10.37;56.40
42811;BME280;28457;55.680;37.656;2022-09-09T05:10:10;100887.34;;;10.39;56.40
42811;BME280;28457;55.680;37.656;2022-09-09T05:12:41;100886.66;;;10.45;55.76
42811;BME280;28457;55.680;37.656;2022-09-09T05:15:11;100885.88;;;10.53;55.61
42811;BME280;28457;55.680;37.656;2022-09-09T05:17:40;100887.72;;;10.61;55.77
42811;BME280;28457;55.680;37.656;2022-09-09T05:20:09;100896.97;;;10.66;55.89
42811;BME280;28457;55.680;37.656;2022-09-09T05:22:43;100897.00;;;10.74;54.56
42811;BME280;28457;55.680;37.656;2022-09-09T05:25:12;100898.16;;;10.80;55.04
42811;BME280;28457;55.680;37.656;2022-09-09T05:27:40;100897.50;;;10.86;54.13
42811;BME280;28457;55.680;37.656;2022-09-09T05:30:11;100898.50;;;10.93;54.47
42811;BME280;28457;55.680;37.656;2022-09-09T05:32:40;100900.53;;;10.99;53.47
42811;BME280;28457;55.680;37.656;2022-09-09T05:35:09;100905.41;;;11.04;53.23
42811;BME280;28457;55.680;37.656;2022-09-09T05:37:38;100902.91;;;11.11;53.15
42811;BME280;28457;55.680;37.656;2022-09-09T05:40:08;100896.16;;;11.15;53.33
42811;BME280;28457;55.680;37.656;2022-09-09T05:42:39;100902.69;;;11.20;52.92
42811;BME280;28457;55.680;37.656;2022-09-09T05:45:08;100900.50;;;11.24;52.27
42811;BME280;28457;55.680;37.656;2022-09-09T05:47:40;100911.94;;;11.34;52.83
42811;BME280;28457;55.680;37.656;2022-09-09T05:50:13;100902.50;;;11.38;52.07
42811;BME280;28457;55.680;37.656;2022-09-09T05:52:42;100904.72;;;11.43;51.46
42811;BME280;28457;55.680;37.656;2022-09-09T05:55:12;100897.44;;;11.51;51.55
42811;BME280;28457;55.680;37.656;2022-09-09T05:57:40;100907.19;;;11.61;51.51
42811;BME280;28457;55.680;37.656;2022-09-09T06:00:10;100901.47;;;11.64;50.98
42811;BME280;28457;55.680;37.656;2022-09-09T06:02:41;100907.84;;;11.71;50.75
42811;BME280;28457;55.680;37.656;2022-09-09T06:05:13;100908.00;;;11.78;50.25
42811;BME280;28457;55.680;37.656;2022-09-09T06:07:42;100906.97;;;11.87;50.20
42811;BME280;28457;55.680;37.656;2022-09-09T06:10:12;100911.50;;;11.94;49.49
42811;BME280;28457;55.680;37.656;2022-09-09T06:12:41;100915.19;;;12.02;49.81
42811;BME280;28457;55.680;37.656;2022-09-09T06:15:10;100921.41;;;12.10;49.56
42811;BME280;28457;55.680;37.656;2022-09-09T06:17:38;100909.53;;;12.19;49.57
42811;BME280;28457;55.680;37.656;2022-09-09T06:20:10;100913.06;;;12.28;49.14
42811;BME280;28457;55.680;37.656;2022-09-09T06:22:40;100922.13;;;12.35;49.00
42811;BME280;28457;55.680;37.656;2022-09-09T06:25:09;100915.00;;;12.42;48.85
42811;BME280;28457;55.680;37.656;2022-09-09T06:27:38;100916.31;;;12.46;48.47
42811;BME280;28457;55.680;37.656;2022-09-09T06:30:09;100918.66;;;12.50;48.15
42811;BME280;28457;55.680;37.656;2022-09-09T06:32:38;100919.31;;;12.52;47.71
42811;BME280;28457;55.680;37.656;2022-09-09T06:35:07;100918.81;;;12.56;46.26
42811;BME280;28457;55.680;37.656;2022-09-09T06:37:37;100925.88;;;12.57;45.71
42811;BME280;28457;55.680;37.656;2022-09-09T06:40:06;100916.59;;;12.60;45.94
42811;BME280;28457;55.680;37.656;2022-09-09T06:42:36;100932.25;;;12.64;44.94
42811;BME280;28457;55.680;37.656;2022-09-09T06:45:20;100922.41;;;12.72;44.97
42811;BME280;28457;55.680;37.656;2022-09-09T06:47:54;100930.28;;;12.81;44.35
42811;BME280;28457;55.680;37.656;2022-09-09T06:50:24;100933.75;;;12.90;44.97
42811;BME280;28457;55.680;37.656;2022-09-09T06:52:54;100932.22;;;12.96;43.82
42811;BME280;28457;55.680;37.656;2022-09-09T06:55:22;100941.44;;;13.01;43.88
42811;BME280;28457;55.680;37.656;2022-09-09T06:57:51;100940.38;;;13.10;44.79
42811;BME280;28457;55.680;37.656;2022-09-09T07:00:22;100944.19;;;13.16;44.87
42811;BME280;28457;55.680;37.656;2022-09-09T07:02:51;100953.19;;;13.16;44.58
42811;BME280;28457;55.680;37.656;2022-09-09T07:05:20;100956.16;;;13.22;43.95
42811;BME280;28457;55.680;37.656;2022-09-09T07:07:50;100946.69;;;13.26;43.67
42811;BME280;28457;55.680;37.656;2022-09-09T07:10:22;100945.78;;;13.33;44.27
42811;BME280;28457;55.680;37.656;2022-09-09T07:12:51;100950.47;;;13.39;44.07
42811;BME280;28457;55.680;37.656;2022-09-09T07:15:22;100948.34;;;13.50;43.49
42811;BME280;28457;55.680;37.656;2022-09-09T07:17:53;100957.88;;;13.60;42.26
42811;BME280;28457;55.680;37.656;2022-09-09T07:20:21;100952.47;;;13.60;42.24
42811;BME280;28457;55.680;37.656;2022-09-09T07:22:54;100956.00;;;13.61;41.83
42811;BME280;28457;55.680;37.656;2022-09-09T07:25:24;100953.59;;;13.66;42.42
42811;BME280;28457;55.680;37.656;2022-09-09T07:27:55;100961.91;;;13.64;41.66
42811;BME280;28457;55.680;37.656;2022-09-09T07:30:25;100964.59;;;13.64;41.42
42811;BME280;28457;55.680;37.656;2022-09-09T07:32:55;100966.59;;;13.71;41.29
42811;BME280;28457;55.680;37.656;2022-09-09T07:35:25;100971.53;;;13.82;41.41
42811;BME280;28457;55.680;37.656;2022-09-09T07:37:54;100970.81;;;13.88;41.11
42811;BME280;28457;55.680;37.656;2022-09-09T07:40:24;100977.31;;;13.94;41.04
42811;BME280;28457;55.680;37.656;2022-09-09T07:42:53;100984.50;;;14.01;40.18
42811;BME280;28457;55.680;37.656;2022-09-09T07:45:21;100978.34;;;14.07;40.42
42811;BME280;28457;55.680;37.656;2022-09-09T07:47:50;100982.38;;;14.11;40.44
42811;BME280;28457;55.680;37.656;2022-09-09T07:50:20;100982.44;;;14.33;40.77
42811;BME280;28457;55.680;37.656;2022-09-09T07:52:49;100971.69;;;14.69;40.15
42811;BME280;28457;55.680;37.656;2022-09-09T07:55:17;100972.66;;;14.83;39.05
42811;BME280;28457;55.680;37.656;2022-09-09T07:57:47;100983.41;;;14.91;39.14
42811;BME280;28457;55.680;37.656;2022-09-09T08:00:17;100979.41;;;14.87;37.84
42811;BME280;28457;55.680;37.656;2022-09-09T08:02:52;100983.78;;;14.88;38.31
42811;BME280;28457;55.680;37.656;2022-09-09T08:05:21;100988.09;;;15.25;38.17
42811;BME280;28457;55.680;37.656;2022-09-09T08:07:50;100985.09;;;15.63;37.09
42811;BME280;28457;55.680;37.656;2022-09-09T08:10:19;100980.25;;;15.80;36.91
42811;BME280;28457;55.680;37.656;2022-09-09T08:12:51;100978.19;;;15.89;36.73
42811;BME280;28457;55.680;37.656;2022-09-09T08:15:40;100983.25;;;15.92;36.59
42811;BME280;28457;55.680;37.656;2022-09-09T08:18:10;100982.81;;;15.88;36.17
42811;BME280;28457;55.680;37.656;2022-09-09T08:20:39;100979.69;;;15.91;36.92
42811;BME280;28457;55.680;37.656;2022-09-09T08:23:07;100982.81;;;15.88;36.11
42811;BME280;28457;55.680;37.656;2022-09-09T08:25:36;100991.16;;;15.87;36.36
42811;BME280;28457;55.680;37.656;2022-09-09T08:28:06;100981.69;;;15.83;35.79
42811;BME280;28457;55.680;37.656;2022-09-09T13:00:22;100983.72;;;19.14;27.73
42811;BME280;28457;55.680;37.656;2022-09-09T13:02:52;100976.19;;;19.09;27.94
42811;BME280;28457;55.680;37.656;2022-09-09T13:05:23;100973.56;;;18.96;28.56
42811;BME280;28457;55.680;37.656;2022-09-09T13:08:00;100981.78;;;18.89;28.12
42811;BME280;28457;55.680;37.656;2022-09-09T13:10:32;100976.00;;;18.73;28.81
42811;BME280;28457;55.680;37.656;2022-09-09T13:13:21;100990.09;;;18.56;28.90
42811;BME280;28457;55.680;37.656;2022-09-09T13:15:53;100989.69;;;18.53;29.09
42811;BME280;28457;55.680;37.656;2022-09-09T13:18:25;100985.72;;;18.42;29.59
42811;BME280;28457;55.680;37.656;2022-09-09T13:20:55;100980.94;;;18.37;29.71
42811;BME280;28457;55.680;37.656;2022-09-09T13:23:27;100988.94;;;18.32;29.79
42811;BME280;28457;55.680;37.656;2022-09-09T13:25:58;100987.91;;;18.27;29.13
42811;BME280;28457;55.680;37.656;2022-09-09T13:28:29;100990.03;;;18.18;29.69
42811;BME280;28457;55.680;37.656;2022-09-09T13:31:03;100979.16;;;18.05;29.29
42811;BME280;28457;55.680;37.656;2022-09-09T13:33:35;100992.38;;;17.94;29.77
42811;BME280;28457;55.680;37.656;2022-09-09T13:36:06;100993.44;;;17.93;29.43
42811;BME280;28457;55.680;37.656;2022-09-09T13:38:37;100982.97;;;17.90;29.54
42811;BME280;28457;55.680;37.656;2022-09-09T13:41:08;100984.00;;;17.89;29.29
42811;BME280;28457;55.680;37.656;2022-09-09T13:43:38;100978.13;;;17.73;29.60
42811;BME280;28457;55.680;37.656;2022-09-09T13:46:25;100985.47;;;17.59;30.49
42811;BME280;28457;55.680;37.656;2022-09-09T13:48:55;100985.25;;;17.60;30.42
42811;BME280;28457;55.680;37.656;2022-09-09T13:51:33;100981.50;;;17.55;31.01
42811;BME280;28457;55.680;37.656;2022-09-09T13:54:04;100993.63;;;17.52;30.87
42811;BME280;28457;55.680;37.656;2022-09-09T13:56:34;100990.06;;;17.52;31.13
42811;BME280;28457;55.680;37.656;2022-09-09T13:59:05;100981.50;;;17.48;31.25
42811;BME280;28457;55.680;37.656;2022-09-09T14:01:36;100990.50;;;17.48;31.13
42811;BME280;28457;55.680;37.656;2022-09-09T14:04:04;100981.25;;;17.50;31.38
42811;BME280;28457;55.680;37.656;2022-09-09T14:06:33;100981.50;;;17.48;31.21
42811;BME280;28457;55.680;37.656;2022-09-09T14:09:04;100971.00;;;17.45;31.02
42811;BME280;28457;55.680;37.656;2022-09-09T14:11:33;100978.53;;;17.43;32.03
42811;BME280;28457;55.680;37.656;2022-09-09T14:14:01;100983.13;;;17.36;32.28
42811;BME280;28457;55.680;37.656;2022-09-09T14:16:29;100977.69;;;17.36;32.17
42811;BME280;28457;55.680;37.656;2022-09-09T14:19:00;100976.03;;;17.35;31.97
42811;BME280;28457;55.680;37.656;2022-09-09T14:21:28;100976.25;;;17.33;32.40
42811;BME280;28457;55.680;37.656;2022-09-09T14:23:57;100983.78;;;17.31;31.78
42811;BME280;28457;55.680;37.656;2022-09-09T14:26:26;100976.44;;;17.25;31.62
42811;BME280;28457;55.680;37.656;2022-09-09T14:28:56;100974.34;;;17.20;31.91
42811;BME280;28457;55.680;37.656;2022-09-09T14:31:25;100981.66;;;17.13;31.83
42811;BME280;28457;55.680;37.656;2022-09-09T14:33:53;100977.47;;;17.11;32.06
42811;BME280;28457;55.680;37.656;2022-09-09T14:36:23;100980.63;;;17.08;32.25
42811;BME280;28457;55.680;37.656;2022-09-09T14:38:52;100977.66;;;16.96;32.34
42811;BME280;28457;55.680;37.656;2022-09-09T14:41:21;100967.16;;;16.93;32.10
42811;BME280;28457;55.680;37.656;2022-09-09T14:43:50;100978.69;;;16.88;31.61
42811;BME280;28457;55.680;37.656;2022-09-09T14:46:19;100974.28;;;16.81;31.31
42811;BME280;28457;55.680;37.656;2022-09-09T14:48:48;100985.13;;;16.74;31.21
42811;BME280;28457;55.680;37.656;2022-09-09T14:51:18;100980.28;;;16.69;31.65
42811;BME280;28457;55.680;37.656;2022-09-09T14:53:53;100980.03;;;16.64;31.75
42811;BME280;28457;55.680;37.656;2022-09-09T21:21:35;101141.47;;;11.82;48.67
42811;BME280;28457;55.680;37.656;2022-09-09T21:24:04;101147.88;;;11.81;48.79
42811;BME280;28457;55.680;37.656;2022-09-09T21:26:32;101146.19;;;11.80;48.63
42811;BME280;28457;55.680;37.656;2022-09-09T21:29:01;101146.38;;;11.78;48.81
42811;BME280;28457;55.680;37.656;2022-09-09T21:31:30;101149.22;;;11.77;48.68
42811;BME280;28457;55.680;37.656;2022-09-09T21:33:58;101144.84;;;11.75;48.94
42811;BME280;28457;55.680;37.656;2022-09-09T21:36:27;101149.41;;;11.75;49.42
42811;BME280;28457;55.680;37.656;2022-09-09T21:38:57;101148.72;;;11.73;49.21
42811;BME280;28457;55.680;37.656;2022-09-09T21:41:25;101155.13;;;11.72;49.36
42811;BME280;28457;55.680;37.656;2022-09-09T21:43:54;101159.84;;;11.70;49.23
42811;BME280;28457;55.680;37.656;2022-09-09T21:46:22;101151.09;;;11.68;49.49
42811;BME280;28457;55.680;37.656;2022-09-09T21:48:52;101153.09;;;11.66;49.89
42811;BME280;28457;55.680;37.656;2022-09-09T21:51:23;101151.41;;;11.65;49.51
42811;BME280;28457;55.680;37.656;2022-09-09T21:53:54;101148.03;;;11.63;49.96
42811;BME280;28457;55.680;37.656;2022-09-09T21:56:24;101150.22;;;11.59;50.13
42811;BME280;28457;55.680;37.656;2022-09-09T21:58:57;101154.94;;;11.57;50.20
42811;BME280;28457;55.680;37.656;2022-09-09T22:01:31;101156.13;;;11.55;50.44
42811;BME280;28457;55.680;37.656;2022-09-09T22:04:01;101155.28;;;11.54;50.19
42811;BME280;28457;55.680;37.656;2022-09-09T22:06:29;101155.59;;;11.51;50.42
42811;BME280;28457;55.680;37.656;2022-09-09T22:08:58;101162.34;;;11.47;50.30
42811;BME280;28457;55.680;37.656;2022-09-09T22:11:29;101158.13;;;11.44;50.25
42811;BME280;28457;55.680;37.656;2022-09-09T22:13:57;101157.44;;;11.42;50.64
42811;BME280;28457;55.680;37.656;2022-09-09T22:16:26;101154.91;;;11.41;50.55
42811;BME280;28457;55.680;37.656;2022-09-09T22:18:56;101162.16;;;11.40;50.42
42811;BME280;28457;55.680;37.656;2022-09-09T22:21:27;101162.34;;;11.39;50.75
42811;BME280;28457;55.680;37.656;2022-09-09T22:23:58;101171.59;;;11.36;50.86
42811;BME280;28457;55.680;37.656;2022-09-09T22:26:30;101168.91;;;11.36;50.71
42811;BME280;28457;55.680;37.656;2022-09-09T22:28:59;101154.91;;;11.33;50.65
42811;BME280;28457;55.680;37.656;2022-09-09T22:31:27;101158.59;;;11.32;50.88
42811;BME280;28457;55.680;37.656;2022-09-09T22:33:56;101153.34;;;11.30;51.13
42811;BME280;28457;55.680;37.656;2022-09-09T22:36:25;101159.06;;;11.27;51.00
42811;BME280;28457;55.680;37.656;2022-09-09T22:38:53;101156.56;;;11.25;51.13
42811;BME280;28457;55.680;37.656;2022-09-09T22:41:23;101155.34;;;11.20;51.54
42811;BME280;28457;55.680;37.656;2022-09-09T22:43:53;101151.28;;;11.16;51.64
42811;BME280;28457;55.680;37.656;2022-09-09T22:46:22;101155.34;;;11.12;51.30
42811;BME280;28457;55.680;37.656;2022-09-09T22:48:50;101159.19;;;11.09;51.36
42811;BME280;28457;55.680;37.656;2022-09-09T22:51:18;101160.53;;;11.05;51.70
42811;BME280;28457;55.680;37.656;2022-09-09T22:53:47;101155.63;;;11.00;51.59
42811;BME280;28457;55.680;37.656;2022-09-09T22:56:18;101156.66;;;10.99;51.81
42811;BME280;28457;55.680;37.656;2022-09-09T22:58:51;101169.59;;;10.96;51.43
42811;BME280;28457;55.680;37.656;2022-09-09T23:01:24;101168.91;;;10.94;51.82
42811;BME280;28457;55.680;37.656;2022-09-09T23:03:54;101164.84;;;10.90;52.32
42811;BME280;28457;55.680;37.656;2022-09-09T23:06:26;101173.09;;;10.88;51.84
42811;BME280;28457;55.680;37.656;2022-09-09T23:08:58;101165.34;;;10.85;52.16
42811;BME280;28457;55.680;37.656;2022-09-09T23:11:29;101168.19;;;10.84;52.48
42811;BME280;28457;55.680;37.656;2022-09-09T23:13:59;101167.34;;;10.83;52.35
42811;BME280;28457;55.680;37.656;2022-09-09T23:16:31;101176.28;;;10.84;51.55
42811;BME280;28457;55.680;37.656;2022-09-09T23:19:00;101172.03;;;10.81;51.85
42811;BME280;28457;55.680;37.656;2022-09-09T23:21:29;101171.19;;;10.81;52.48
42811;BME280;28457;55.680;37.656;2022-09-09T23:23:58;101163.28;;;10.79;52.40
42811;BME280;28457;55.680;37.656;2022-09-09T23:26:27;101169.00;;;10.76;52.07
42811;BME280;28457;55.680;37.656;2022-09-09T23:28:57;101176.56;;;10.72;52.33
42811;BME280;28457;55.680;37.656;2022-09-09T23:31:27;101176.88;;;10.69;52.76
42811;BME280;28457;55.680;37.656;2022-09-09T23:33:59;101173.50;;;10.67;52.51
42811;BME280;28457;55.680;37.656;2022-09-09T23:36:28;101172.97;;;10.64;52.54
42811;BME280;28457;55.680;37.656;2022-09-09T23:38:57;101172.47;;;10.60;53.15
42811;BME280;28457;55.680;37.656;2022-09-09T23:41:26;101172.47;;;10.60;52.49
42811;BME280;28457;55.680;37.656;2022-09-09T23:43:55;101177.84;;;10.60;52.99
42811;BME280;28457;55.680;37.656;2022-09-09T23:46:25;101171.59;;;10.60;52.56
42811;BME280;28457;55.680;37.656;2022-09-09T23:48:55;101179.00;;;10.58;52.44
42811;BME280;28457;55.680;37.656;2022-09-09T23:51:27;101175.47;;;10.57;52.72
42811;BME280;28457;55.680;37.656;2022-09-09T23:53:58;101175.47;;;10.57;52.80
42811;BME280;28457;55.680;37.656;2022-09-09T23:56:31;101174.78;;;10.55;52.96